Time;durP1;ratioP1;P1;durP2;ratioP2;P2;SDS_P1;SDS_P2;PMS_P1;PMS_P2;Temp;Humidity;BMP_temperature;BMP_pressure;BME280_temperature;BME280_humidity;BME280_pressure;Samples;Min_cycle;Max_cycle;Signal;HPM_P1;HPM_P2
2022/10/06 00:01:05;;;;;;;9.13;8.52;;;15.10;99.90;;;;;;5013022;28;20076;-71
2022/10/06 00:03:32;;;;;;;9.95;7.85;;;14.70;99.90;;;;;;5008758;28;20049;-71
2022/10/06 00:06:02;;;;;;;7.35;6.75;;;14.60;99.90;;;;;;5007065;28;20077;-71
2022/10/06 00:08:31;;;;;;;8.63;5.85;;;14.50;99.90;;;;;;5016666;28;20045;-71
2022/10/06 00:10:58;;;;;;;6.03;4.70;;;14.20;99.90;;;;;;5016845;28;20049;-71
2022/10/06 00:13:26;;;;;;;5.10;4.47;;;14.10;99.90;;;;;;5008023;28;20037;-70
2022/10/06 00:15:53;;;;;;;4.43;4.03;;;14.00;99.90;;;;;;5013557;28;20144;-70
2022/10/06 00:18:20;;;;;;;6.10;3.45;;;13.90;99.90;;;;;;5011787;28;20037;-73
2022/10/06 00:20:59;;;;;;;7.05;4.07;;;13.80;99.90;;;;;;5003889;28;20049;-73
2022/10/06 00:23:27;;;;;;;4.22;3.83;;;13.70;99.90;;;;;;5008823;28;20707;-73
2022/10/06 00:25:54;;;;;;;7.45;3.88;;;13.70;99.90;;;;;;5008161;28;20049;-72
2022/10/06 00:28:21;;;;;;;6.68;3.30;;;13.60;99.90;;;;;;5011889;28;20037;-73
2022/10/06 00:30:49;;;;;;;8.80;4.15;;;13.50;99.90;;;;;;5007517;28;20135;-73
2022/10/06 00:33:16;;;;;;;7.70;4.95;;;13.50;99.90;;;;;;5008153;28;20854;-73
2022/10/06 00:35:45;;;;;;;8.60;4.80;;;13.50;99.90;;;;;;5006012;28;20161;-72
2022/10/06 00:38:14;;;;;;;8.43;6.10;;;13.50;99.90;;;;;;5008958;28;20089;-72
2022/10/06 00:40:44;;;;;;;8.38;5.40;;;13.50;99.90;;;;;;4998038;28;20045;-72
2022/10/06 00:43:35;;;;;;;5.22;2.42;;;13.50;99.90;;;;;;5015927;28;20049;-72
2022/10/06 00:46:02;;;;;;;2.35;1.33;;;13.20;99.90;;;;;;5009754;28;20038;-72
2022/10/06 00:48:29;;;;;;;1.90;1.67;;;12.80;99.90;;;;;;5010294;28;20052;-72
2022/10/06 00:50:58;;;;;;;2.00;1.70;;;12.60;99.90;;;;;;5016525;28;20401;-71
2022/10/06 00:53:29;;;;;;;2.83;2.15;;;12.40;99.90;;;;;;4998533;28;20146;-71
2022/10/06 00:55:56;;;;;;;4.20;2.40;;;12.40;99.90;;;;;;5005901;28;20038;-71
2022/10/06 00:58:23;;;;;;;2.13;2.03;;;12.30;99.90;;;;;;5010726;28;20104;-71
2022/10/06 01:00:53;;;;;;;3.95;1.90;;;12.10;99.90;;;;;;5012814;28;20145;-71
2022/10/06 01:03:26;;;;;;;4.18;1.70;;;12.10;99.90;;;;;;5008768;28;20132;-71
2022/10/06 01:05:54;;;;;;;4.53;2.17;;;11.90;99.90;;;;;;5002616;28;20555;-71
2022/10/06 01:08:22;;;;;;;3.88;2.60;;;11.90;99.90;;;;;;5015785;28;20064;-71
2022/10/06 01:10:49;;;;;;;5.60;2.50;;;11.90;99.90;;;;;;5000094;28;20369;-73
2022/10/06 01:13:16;;;;;;;5.60;1.92;;;11.80;99.90;;;;;;5005259;28;20629;-73
2022/10/06 01:16:06;;;;;;;3.65;1.80;;;11.80;99.90;;;;;;5000858;28;20046;-74
2022/10/06 01:18:36;;;;;;;5.32;2.20;;;11.80;99.90;;;;;;5036885;23;20474;-72
2022/10/06 01:21:10;;;;;;;6.57;2.45;;;11.70;99.90;;;;;;5020421;28;20594;-76
2022/10/06 01:23:38;;;;;;;3.65;2.40;;;11.80;99.90;;;;;;4999990;28;20520;-71
2022/10/06 01:26:08;;;;;;;6.28;2.70;;;11.80;99.90;;;;;;5002067;28;20045;-73
2022/10/06 01:28:37;;;;;;;3.72;2.30;;;11.70;99.90;;;;;;4999521;28;20049;-72
2022/10/06 01:31:06;;;;;;;3.67;2.78;;;11.70;99.90;;;;;;5017869;28;20055;-74
2022/10/06 01:33:33;;;;;;;4.65;2.60;;;11.70;99.90;;;;;;4997698;28;20189;-71
2022/10/06 01:36:00;;;;;;;3.50;2.75;;;11.70;99.90;;;;;;5003661;28;20041;-71
2022/10/06 01:38:27;;;;;;;8.70;3.72;;;11.70;99.90;;;;;;5014645;28;20307;-72
2022/10/06 01:40:59;;;;;;;7.00;3.50;;;11.70;99.90;;;;;;4992910;28;20076;-69
2022/10/06 01:43:26;;;;;;;5.88;3.22;;;11.70;99.90;;;;;;5001777;28;20491;-70
2022/10/06 01:45:57;;;;;;;5.50;3.75;;;11.70;99.90;;;;;;4984320;28;20042;-68
2022/10/06 01:48:25;;;;;;;4.07;3.22;;;11.70;99.90;;;;;;5018095;28;20052;-68
2022/10/06 01:50:55;;;;;;;7.35;3.45;;;11.70;99.90;;;;;;5033431;28;20533;-67
2022/10/06 01:53:22;;;;;;;6.88;3.25;;;11.80;99.90;;;;;;5001228;28;20049;-69
2022/10/06 01:55:48;;;;;;;8.23;3.00;;;11.70;99.90;;;;;;4998359;28;20431;-67
2022/10/06 01:58:19;;;;;;;5.13;2.95;;;11.70;99.90;;;;;;5016606;28;20069;-67
2022/10/06 02:00:46;;;;;;;5.50;2.95;;;11.60;99.90;;;;;;5000497;28;20045;-67
2022/10/06 02:03:13;;;;;;;6.28;2.70;;;11.70;99.90;;;;;;5018001;28;20145;-67
2022/10/06 02:05:40;;;;;;;6.07;3.08;;;11.70;99.90;;;;;;5016630;28;20114;-66
2022/10/06 02:08:08;;;;;;;5.65;3.47;;;11.70;99.90;;;;;;5018900;28;20160;-67
2022/10/06 02:10:35;;;;;;;4.03;3.40;;;11.70;99.90;;;;;;4997448;28;20041;-68
2022/10/06 02:13:05;;;;;;;5.10;3.13;;;11.70;99.90;;;;;;5017093;28;20051;-67
2022/10/06 02:15:33;;;;;;;6.82;3.70;;;11.70;99.90;;;;;;4996383;28;20536;-68
2022/10/06 02:17:59;;;;;;;6.70;3.75;;;11.70;99.90;;;;;;5001452;28;20049;-67
2022/10/06 02:20:26;;;;;;;7.25;3.75;;;11.80;99.90;;;;;;4997876;28;20041;-70
2022/10/06 02:22:53;;;;;;;7.90;3.75;;;11.80;99.90;;;;;;5017301;28;20041;-74
2022/10/06 02:25:19;;;;;;;9.95;3.70;;;11.80;99.90;;;;;;4999598;28;20060;-74
2022/10/06 02:27:47;;;;;;;6.22;3.20;;;11.80;99.90;;;;;;5001258;28;20148;-72
2022/10/06 02:30:14;;;;;;;10.30;3.33;;;11.90;99.90;;;;;;4987589;28;20048;-72
2022/10/06 02:32:43;;;;;;;9.35;2.90;;;11.90;99.90;;;;;;5000220;28;20132;-68
2022/10/06 02:35:14;;;;;;;9.95;2.95;;;11.90;99.90;;;;;;5001716;28;20128;-68
2022/10/06 02:37:42;;;;;;;5.45;2.47;;;11.90;99.90;;;;;;5001231;28;20046;-70
2022/10/06 02:40:12;;;;;;;7.30;3.40;;;11.90;99.90;;;;;;5002463;28;20128;-66
2022/10/06 02:42:38;;;;;;;10.23;2.92;;;11.90;99.90;;;;;;5021952;28;20048;-68
2022/10/06 02:45:06;;;;;;;10.60;3.35;;;11.90;99.90;;;;;;5020836;28;20065;-67
2022/10/06 02:47:35;;;;;;;7.07;2.17;;;11.80;99.90;;;;;;5017728;28;20132;-67
2022/10/06 02:50:04;;;;;;;9.27;2.85;;;11.80;99.90;;;;;;5022426;28;20411;-69
2022/10/06 02:52:33;;;;;;;8.70;2.33;;;11.80;99.90;;;;;;5017220;28;20042;-67
2022/10/06 02:55:01;;;;;;;6.63;2.63;;;11.80;99.90;;;;;;5023780;28;20531;-66
2022/10/06 02:57:29;;;;;;;9.73;2.83;;;11.80;99.90;;;;;;5004452;28;20051;-67
2022/10/06 02:59:57;;;;;;;8.15;2.78;;;11.80;99.90;;;;;;5018730;28;20353;-68
2022/10/06 03:02:24;;;;;;;9.18;3.10;;;11.70;99.90;;;;;;5001975;28;20030;-68
2022/10/06 03:04:52;;;;;;;8.48;2.92;;;11.70;99.90;;;;;;5005715;28;20072;-68
2022/10/06 03:07:18;;;;;;;4.55;3.22;;;11.70;99.90;;;;;;5005897;28;20038;-67
2022/10/06 03:09:45;;;;;;;11.60;3.53;;;11.60;99.90;;;;;;5019068;28;20056;-72
2022/10/06 03:12:12;;;;;;;13.43;3.63;;;11.60;99.90;;;;;;5021073;28;20458;-67
2022/10/06 03:14:42;;;;;;;13.88;3.67;;;11.50;99.90;;;;;;5003865;28;20395;-68
2022/10/06 03:17:09;;;;;;;8.73;3.22;;;11.50;99.90;;;;;;5005383;28;20045;-67
2022/10/06 03:19:42;;;;;;;12.63;3.33;;;11.50;99.90;;;;;;5002803;28;20186;-68
2022/10/06 03:22:09;;;;;;;12.93;3.70;;;11.50;99.90;;;;;;5003396;28;20099;-68
2022/10/06 03:24:41;;;;;;;9.55;3.70;;;11.40;99.90;;;;;;5002307;28;20060;-71
2022/10/06 03:27:08;;;;;;;10.52;3.25;;;11.40;99.90;;;;;;5008681;28;20092;-67
2022/10/06 03:29:35;;;;;;;13.10;3.67;;;11.50;99.90;;;;;;5000885;28;20045;-68
2022/10/06 03:32:02;;;;;;;13.00;3.72;;;11.40;99.90;;;;;;5003376;28;20041;-68
2022/10/06 03:34:30;;;;;;;13.40;4.40;;;11.40;99.90;;;;;;4986205;28;20041;-66
2022/10/06 03:36:59;;;;;;;17.42;3.58;;;11.40;99.90;;;;;;5002468;28;20133;-68
2022/10/06 03:39:27;;;;;;;13.77;3.83;;;11.40;99.90;;;;;;5018266;28;20052;-68
2022/10/06 03:41:54;;;;;;;14.95;3.38;;;11.30;99.90;;;;;;5016332;28;20132;-68
2022/10/06 03:44:21;;;;;;;11.88;4.70;;;11.40;99.90;;;;;;5020366;28;20594;-71
2022/10/06 03:46:48;;;;;;;14.73;3.95;;;11.30;99.90;;;;;;5035150;28;20034;-67
2022/10/06 03:49:15;;;;;;;11.13;3.55;;;11.30;99.90;;;;;;5020216;28;20071;-68
2022/10/06 03:51:41;;;;;;;8.23;3.53;;;11.30;99.90;;;;;;4998993;28;20551;-68
2022/10/06 03:54:13;;;;;;;7.82;3.85;;;11.30;99.90;;;;;;5004889;28;20557;-69
2022/10/06 03:56:42;;;;;;;12.85;4.10;;;11.30;99.90;;;;;;5000415;28;20037;-69
2022/10/06 03:59:15;;;;;;;13.80;4.40;;;11.30;99.90;;;;;;5004918;28;20096;-67
2022/10/06 04:01:45;;;;;;;13.65;3.83;;;11.40;99.90;;;;;;5032575;28;20060;-68
2022/10/06 04:04:17;;;;;;;9.50;3.47;;;11.40;99.90;;;;;;5001042;28;20476;-68
2022/10/06 04:06:47;;;;;;;14.13;3.80;;;11.30;99.90;;;;;;5002272;28;20045;-67
2022/10/06 04:09:17;;;;;;;19.80;4.72;;;11.30;99.90;;;;;;5019029;28;20147;-71
2022/10/06 04:11:44;;;;;;;16.15;5.25;;;11.30;99.90;;;;;;4999927;28;20902;-72
2022/10/06 04:14:14;;;;;;;12.18;4.35;;;11.40;99.90;;;;;;5003034;28;20534;-72
2022/10/06 04:16:48;;;;;;;15.20;5.55;;;11.30;99.90;;;;;;5019809;28;20049;-71
2022/10/06 04:19:20;;;;;;;18.60;5.45;;;11.30;99.90;;;;;;5001389;28;20049;-74
2022/10/06 04:21:51;;;;;;;16.85;4.55;;;11.40;99.90;;;;;;5002076;28;20042;-74
2022/10/06 04:24:21;;;;;;;13.68;4.03;;;11.30;99.90;;;;;;5022767;28;20112;-72
2022/10/06 04:26:48;;;;;;;14.88;4.00;;;11.30;99.90;;;;;;4985383;28;20100;-70
2022/10/06 04:29:16;;;;;;;17.17;4.80;;;11.30;99.90;;;;;;4991199;28;20136;-72
2022/10/06 04:31:47;;;;;;;15.63;5.03;;;11.30;99.90;;;;;;5001632;28;20072;-72
2022/10/06 04:34:34;;;;;;;19.35;3.88;;;11.30;99.90;;;;;;5016423;28;20052;-71
2022/10/06 04:37:02;;;;;;;13.48;4.20;;;11.30;99.90;;;;;;5010326;28;20499;-74
2022/10/06 04:39:29;;;;;;;12.93;4.25;;;11.30;99.90;;;;;;5008286;28;20490;-73
2022/10/06 04:41:56;;;;;;;13.70;4.22;;;11.20;99.90;;;;;;4987216;28;20037;-73
2022/10/06 04:44:27;;;;;;;17.27;4.45;;;11.10;99.90;;;;;;5002952;28;20686;-70
2022/10/06 04:46:57;;;;;;;18.88;4.25;;;11.10;99.90;;;;;;5002368;28;20183;-71
2022/10/06 04:49:24;;;;;;;15.30;4.60;;;11.00;99.90;;;;;;5003473;28;20056;-74
2022/10/06 04:51:52;;;;;;;13.48;4.60;;;11.00;99.90;;;;;;5002763;28;20051;-73
2022/10/06 04:54:19;;;;;;;22.55;4.95;;;10.90;99.90;;;;;;5003638;28;20539;-76
2022/10/06 04:56:50;;;;;;;20.48;4.68;;;10.90;99.90;;;;;;5001782;28;20658;-72
2022/10/06 05:00:21;;;;;;;12.68;4.07;;;10.90;99.90;;;;;;5018296;28;20047;-74
2022/10/06 05:02:08;;;;;;;14.93;4.68;;;10.80;99.90;;;;;;5000392;28;20480;-72
2022/10/06 05:04:34;;;;;;;16.15;5.18;;;10.70;99.90;;;;;;4999842;28;20041;-73
2022/10/06 05:07:01;;;;;;;15.63;4.38;;;10.70;99.90;;;;;;5019253;28;20410;-71
2022/10/06 05:09:28;;;;;;;20.45;4.97;;;10.70;99.90;;;;;;5019411;28;20619;-72
2022/10/06 05:11:55;;;;;;;17.95;5.10;;;10.70;99.90;;;;;;5000781;28;20202;-73
2022/10/06 05:14:22;;;;;;;12.20;4.95;;;10.70;99.90;;;;;;5000493;28;20046;-72
2022/10/06 05:16:49;;;;;;;19.67;4.78;;;10.70;99.90;;;;;;4999019;28;20786;-72
2022/10/06 05:19:15;;;;;;;11.85;4.75;;;10.80;99.90;;;;;;5021229;28;20743;-71
2022/10/06 05:21:42;;;;;;;13.73;5.40;;;10.80;99.90;;;;;;5000447;28;20045;-75
2022/10/06 05:24:14;;;;;;;20.33;5.47;;;10.90;99.90;;;;;;4986024;28;20037;-74
2022/10/06 05:26:44;;;;;;;18.58;4.60;;;10.90;99.90;;;;;;5017308;28;20688;-71
2022/10/06 05:29:13;;;;;;;19.90;5.05;;;10.90;99.90;;;;;;5002857;28;20053;-72
2022/10/06 05:31:42;;;;;;;19.70;5.00;;;10.90;99.90;;;;;;5000901;28;20542;-75
2022/10/06 05:34:10;;;;;;;18.75;4.97;;;11.00;99.90;;;;;;5000924;28;20038;-73
2022/10/06 05:36:37;;;;;;;20.85;5.00;;;11.00;99.90;;;;;;4998801;28;20530;-74
2022/10/06 05:39:05;;;;;;;17.10;4.95;;;11.00;99.90;;;;;;5001253;28;20103;-71
2022/10/06 05:41:37;;;;;;;24.35;5.18;;;11.00;99.90;;;;;;4997818;28;20219;-71
2022/10/06 05:44:07;;;;;;;16.40;5.35;;;11.00;99.90;;;;;;4997568;28;20123;-72
2022/10/06 05:46:37;;;;;;;19.08;5.47;;;11.00;99.90;;;;;;5014709;28;20045;-73
2022/10/06 05:49:07;;;;;;;14.15;5.72;;;11.00;99.90;;;;;;5000755;28;20073;-72
2022/10/06 05:51:35;;;;;;;15.40;5.53;;;11.00;99.90;;;;;;4999597;28;20041;-73
2022/10/06 05:54:06;;;;;;;19.15;5.63;;;11.00;99.90;;;;;;5004806;28;20041;-73
2022/10/06 05:56:36;;;;;;;15.77;5.90;;;10.90;99.90;;;;;;4999145;28;20132;-71
2022/10/06 05:59:04;;;;;;;19.88;5.88;;;10.80;99.90;;;;;;5001483;28;20124;-70
2022/10/06 06:01:36;;;;;;;12.32;5.95;;;10.80;99.90;;;;;;5002515;28;20143;-69
2022/10/06 06:04:09;;;;;;;18.40;6.53;;;10.80;99.90;;;;;;4984803;28;20077;-70
2022/10/06 06:06:47;;;;;;;15.97;6.20;;;10.80;99.90;;;;;;4997269;28;20140;-69
2022/10/06 06:09:20;;;;;;;11.82;7.75;;;10.70;99.90;;;;;;4988575;28;20798;-70
2022/10/06 06:11:53;;;;;;;20.42;6.20;;;10.70;99.90;;;;;;4999115;28;20045;-70
2022/10/06 06:17:17;;;;;;;22.35;6.70;;;10.60;99.90;;;;;;4999464;28;20045;-67
2022/10/06 06:19:44;;;;;;;16.90;5.30;;;10.60;99.90;;;;;;4982217;28;20962;-67
2022/10/06 06:22:17;;;;;;;10.68;5.30;;;10.60;99.90;;;;;;5019387;28;20145;-67
2022/10/06 06:24:45;;;;;;;16.20;5.03;;;10.60;99.90;;;;;;4998040;28;20529;-68
2022/10/06 06:27:13;;;;;;;14.50;5.70;;;10.60;99.90;;;;;;5000036;28;20521;-67
2022/10/06 06:29:40;;;;;;;21.88;5.97;;;10.60;99.90;;;;;;4997434;28;20104;-69
2022/10/06 06:32:08;;;;;;;23.33;5.88;;;10.60;99.90;;;;;;5000253;28;20591;-68
2022/10/06 06:34:35;;;;;;;11.68;5.63;;;10.60;99.90;;;;;;4998413;28;20116;-70
2022/10/06 06:37:02;;;;;;;11.05;5.85;;;10.70;99.90;;;;;;4996155;28;20103;-68
2022/10/06 06:39:35;;;;;;;21.05;7.00;;;10.60;99.90;;;;;;4997271;28;20581;-68
2022/10/06 06:42:04;;;;;;;22.13;7.35;;;10.60;99.90;;;;;;5016628;28;20407;-69
2022/10/06 06:44:37;;;;;;;17.00;6.18;;;10.70;99.90;;;;;;5015798;28;20107;-72
2022/10/06 06:47:11;;;;;;;22.30;6.05;;;10.70;99.90;;;;;;5000273;28;20045;-72
2022/10/06 06:49:38;;;;;;;29.08;6.93;;;10.70;99.90;;;;;;5012862;28;20046;-71
2022/10/06 06:52:07;;;;;;;20.30;6.82;;;10.80;99.90;;;;;;5000779;28;20045;-71
2022/10/06 06:54:35;;;;;;;20.55;6.70;;;10.80;99.90;;;;;;5016167;28;20290;-73
2022/10/06 06:57:08;;;;;;;25.15;8.57;;;10.80;99.90;;;;;;5017406;28;20045;-71
2022/10/06 06:59:37;;;;;;;18.88;6.88;;;10.80;99.90;;;;;;4980456;28;20077;-67
2022/10/06 07:02:08;;;;;;;17.75;6.93;;;10.90;99.90;;;;;;5016692;28;20037;-68
2022/10/06 07:04:37;;;;;;;19.35;7.35;;;11.00;99.90;;;;;;4995594;28;20053;-69
2022/10/06 07:07:08;;;;;;;23.55;7.22;;;11.00;99.90;;;;;;5000384;28;20050;-68
2022/10/06 07:09:35;;;;;;;16.95;6.85;;;11.10;99.90;;;;;;5012181;28;20045;-67
2022/10/06 07:12:06;;;;;;;16.55;8.30;;;11.10;99.90;;;;;;5016677;28;20046;-68
2022/10/06 07:14:32;;;;;;;21.92;7.97;;;11.20;99.90;;;;;;5015258;28;20081;-68
2022/10/06 07:25:23;;;;;;;21.90;9.73;;;11.40;99.90;;;;;;4952690;28;20412;-74
2022/10/06 07:27:58;;;;;;;20.65;9.55;;;11.60;99.90;;;;;;4961212;28;20383;-74
2022/10/06 07:30:29;;;;;;;18.48;10.18;;;11.60;99.90;;;;;;4974429;28;20058;-73
2022/10/06 07:33:08;;;;;;;23.20;10.75;;;11.70;99.90;;;;;;4958656;28;20038;-75
2022/10/06 07:35:38;;;;;;;23.30;11.27;;;11.70;99.90;;;;;;4955187;28;20114;-74
2022/10/06 07:38:06;;;;;;;20.58;12.40;;;11.80;99.90;;;;;;4956336;28;20104;-74
2022/10/06 07:40:38;;;;;;;21.50;11.95;;;11.70;99.90;;;;;;4946788;28;20039;-74
2022/10/06 07:43:17;;;;;;;18.63;12.30;;;11.70;99.90;;;;;;4941040;28;20283;-73
2022/10/06 07:45:46;;;;;;;23.10;12.77;;;11.70;99.90;;;;;;4950623;28;20146;-74
2022/10/06 07:48:22;;;;;;;17.17;12.68;;;11.70;99.90;;;;;;4955683;28;20038;-74
2022/10/06 07:50:55;;;;;;;16.65;13.80;;;11.70;99.90;;;;;;4968386;28;20124;-72
2022/10/06 07:53:26;;;;;;;30.17;15.20;;;11.70;99.90;;;;;;4951873;28;20054;-75
2022/10/06 07:56:04;;;;;;;19.08;15.05;;;11.90;99.90;;;;;;4950237;28;20050;-74
2022/10/06 07:58:36;;;;;;;16.88;15.10;;;11.90;99.90;;;;;;4968273;28;20105;-74
2022/10/06 08:01:08;;;;;;;26.02;15.18;;;11.90;99.90;;;;;;4962584;28;20386;-74
2022/10/06 08:03:40;;;;;;;22.40;15.32;;;12.10;99.90;;;;;;4964675;28;20054;-74
2022/10/06 08:06:11;;;;;;;23.55;16.00;;;12.30;99.90;;;;;;4976869;28;20034;-74
2022/10/06 08:08:38;;;;;;;21.15;16.33;;;12.40;99.90;;;;;;4965747;28;20057;-73
2022/10/06 08:11:06;;;;;;;26.08;17.42;;;12.60;99.90;;;;;;4957104;28;20042;-73
2022/10/06 08:13:35;;;;;;;19.58;17.55;;;12.90;99.90;;;;;;4970880;28;20058;-73
2022/10/06 08:16:08;;;;;;;21.52;18.17;;;13.00;99.90;;;;;;4961969;28;20054;-73
2022/10/06 08:18:35;;;;;;;21.17;18.52;;;13.10;99.90;;;;;;4955113;28;20104;-73
2022/10/06 08:21:20;;;;;;;24.42;19.10;;;13.10;99.90;;;;;;4973857;28;20043;-74
2022/10/06 08:23:48;;;;;;;27.33;19.60;;;13.10;99.90;;;;;;4947394;28;20047;-74
2022/10/06 08:26:17;;;;;;;29.90;20.10;;;13.20;99.90;;;;;;4957967;28;20401;-74
2022/10/06 08:28:46;;;;;;;26.40;19.75;;;13.10;99.90;;;;;;4961967;28;20213;-74
2022/10/06 08:31:14;;;;;;;22.00;18.77;;;13.20;99.90;;;;;;4954849;28;20085;-74
2022/10/06 08:33:42;;;;;;;24.05;18.98;;;13.20;99.90;;;;;;4960778;28;20082;-73
2022/10/06 08:36:13;;;;;;;27.90;18.50;;;13.20;99.90;;;;;;4978472;28;20237;-74
2022/10/06 08:38:40;;;;;;;21.40;19.05;;;13.40;99.90;;;;;;4927055;28;20055;-79
2022/10/06 08:41:33;;;;;;;24.73;20.05;;;13.50;99.90;;;;;;4968424;28;20081;-75
2022/10/06 08:44:03;;;;;;;23.33;21.15;;;13.80;99.90;;;;;;4963320;28;20508;-75
2022/10/06 08:46:52;;;;;;;22.42;20.17;;;13.90;99.90;;;;;;4964523;28;20442;-74
2022/10/06 08:49:21;;;;;;;22.58;20.35;;;13.80;99.90;;;;;;4962903;28;20417;-75
2022/10/06 08:52:17;;;;;;;21.85;20.10;;;13.80;99.90;;;;;;4969388;28;20255;-75
2022/10/06 08:55:06;;;;;;;25.42;20.08;;;13.90;99.90;;;;;;4963755;28;20081;-75
2022/10/06 08:57:56;;;;;;;23.35;20.88;;;14.10;99.90;;;;;;4954762;28;20050;-75
2022/10/06 09:00:22;;;;;;;23.38;20.90;;;14.00;99.90;;;;;;4971246;28;20047;-75
2022/10/06 09:02:50;;;;;;;25.75;20.40;;;13.80;99.90;;;;;;4950523;28;20466;-75
2022/10/06 09:05:24;;;;;;;23.88;21.33;;;13.80;99.90;;;;;;4971747;28;20034;-75
2022/10/06 09:08:18;;;;;;;23.13;20.73;;;13.60;99.90;;;;;;4952836;28;20134;-74
2022/10/06 09:11:22;;;;;;;24.75;21.38;;;13.80;99.90;;;;;;4952888;28;20030;-75
2022/10/06 09:14:25;;;;;;;23.45;21.00;;;13.80;99.90;;;;;;4980855;28;20056;-75
2022/10/06 09:16:59;;;;;;;24.90;22.02;;;14.00;99.90;;;;;;4933614;28;20225;-74
2022/10/06 09:19:40;;;;;;;22.40;20.10;;;14.10;99.90;;;;;;4974514;28;20410;-75
2022/10/06 09:22:16;;;;;;;23.77;21.35;;;14.20;99.90;;;;;;4953561;28;20039;-74
2022/10/06 09:24:48;;;;;;;24.00;21.58;;;14.10;99.90;;;;;;4958939;28;20043;-73
2022/10/06 09:27:22;;;;;;;24.10;21.58;;;14.20;99.90;;;;;;4965186;28;20034;-74
2022/10/06 09:29:51;;;;;;;22.67;20.50;;;14.00;99.90;;;;;;4947292;28;20062;-75
2022/10/06 09:32:19;;;;;;;23.90;21.58;;;14.10;99.90;;;;;;4953944;28;20093;-74
2022/10/06 09:34:54;;;;;;;23.80;21.30;;;14.10;99.90;;;;;;4969778;28;20054;-74
2022/10/06 09:37:22;;;;;;;22.98;20.75;;;14.00;99.90;;;;;;4953725;28;20035;-74
2022/10/06 09:39:50;;;;;;;24.75;22.08;;;13.70;99.90;;;;;;4969365;28;20347;-74
2022/10/06 09:42:22;;;;;;;26.92;21.70;;;13.70;99.90;;;;;;4965138;28;20045;-74
2022/10/06 09:45:04;;;;;;;24.35;21.77;;;13.70;99.90;;;;;;4934769;28;20051;-74
2022/10/06 09:47:35;;;;;;;23.98;21.45;;;13.80;99.90;;;;;;4964195;28;20051;-74
2022/10/06 09:50:15;;;;;;;25.45;21.60;;;14.00;99.90;;;;;;4966022;28;20048;-74
2022/10/06 09:53:00;;;;;;;24.27;22.17;;;13.90;99.90;;;;;;4945547;28;20508;-75
2022/10/06 09:55:29;;;;;;;;;;;14.10;99.90;;;;;;4965699;28;20046;-74
2022/10/06 09:57:56;;;;;;;26.05;22.33;;;14.50;99.90;;;;;;4967407;28;19925;-74
2022/10/06 10:00:34;;;;;;;23.55;21.08;;;14.50;99.90;;;;;;4973435;28;20050;-74
2022/10/06 10:03:10;;;;;;;24.63;21.08;;;14.50;99.90;;;;;;4925371;28;20039;-75
2022/10/06 10:05:45;;;;;;;23.15;21.13;;;14.70;99.90;;;;;;4937876;28;20043;-73
2022/10/06 10:08:40;;;;;;;24.63;20.23;;;14.70;99.90;;;;;;4961255;28;20040;-75
2022/10/06 10:12:23;;;;;;;22.42;20.38;;;14.50;99.90;;;;;;4937080;28;20420;-74
2022/10/06 10:13:57;;;;;;;26.23;21.55;;;14.60;99.90;;;;;;4958737;28;20042;-73
2022/10/06 10:16:33;;;;;;;23.13;20.75;;;15.00;99.90;;;;;;4958736;28;20461;-74
2022/10/06 10:19:03;;;;;;;23.63;21.45;;;15.30;99.90;;;;;;4961052;28;20054;-74
2022/10/06 10:21:32;;;;;;;27.00;21.63;;;15.60;99.90;;;;;;4953855;28;20039;-73
2022/10/06 10:24:02;;;;;;;23.48;21.20;;;16.00;99.90;;;;;;4963084;28;20664;-74
2022/10/06 10:26:48;;;;;;;23.92;21.60;;;15.90;99.90;;;;;;4946810;28;20381;-74
2022/10/06 10:29:29;;;;;;;23.15;21.23;;;16.20;99.90;;;;;;4968455;28;20042;-74
2022/10/06 10:32:14;;;;;;;23.80;21.60;;;16.00;99.90;;;;;;4963349;28;20449;-73
2022/10/06 10:34:59;;;;;;;24.15;21.98;;;16.00;99.90;;;;;;4959636;28;20054;-74
2022/10/06 10:37:46;;;;;;;24.05;22.00;;;16.00;99.90;;;;;;4949346;28;20045;-75
2022/10/06 10:40:30;;;;;;;24.05;21.95;;;16.10;99.90;;;;;;4947251;28;20081;-73
2022/10/06 10:43:10;;;;;;;23.63;21.67;;;15.80;99.90;;;;;;4960611;28;20046;-72
2022/10/06 10:45:54;;;;;;;25.80;23.17;;;15.50;99.90;;;;;;4946811;28;20051;-72
2022/10/06 10:48:32;;;;;;;24.17;22.35;;;15.40;99.90;;;;;;4942458;28;20049;-72
2022/10/06 10:51:05;;;;;;;33.08;22.70;;;15.50;99.90;;;;;;4939135;28;20133;-72
2022/10/06 10:53:42;;;;;;;25.65;22.98;;;15.90;99.90;;;;;;4958416;28;20626;-72
2022/10/06 10:56:12;;;;;;;23.70;21.38;;;16.00;99.90;;;;;;4937848;28;20049;-72
2022/10/06 10:58:42;;;;;;;24.40;22.05;;;15.90;99.90;;;;;;4957111;28;20050;-72
2022/10/06 11:01:28;;;;;;;26.27;23.50;;;15.50;99.90;;;;;;4935266;28;20133;-72
2022/10/06 11:03:56;;;;;;;24.92;22.15;;;15.10;99.90;;;;;;4962487;28;20373;-72
2022/10/06 11:06:40;;;;;;;25.27;22.65;;;14.90;99.90;;;;;;4942807;28;20045;-72
2022/10/06 11:09:50;;;;;;;23.45;21.27;;;14.70;99.90;;;;;;4972666;28;20481;-72
2022/10/06 11:12:50;;;;;;;23.92;21.02;;;14.70;99.90;;;;;;4922563;29;20122;-72
2022/10/06 11:16:02;;;;;;;23.05;21.23;;;15.00;99.90;;;;;;4963398;28;20051;-71
2022/10/06 11:18:46;;;;;;;23.10;21.27;;;15.00;99.90;;;;;;4927839;28;20055;-72
2022/10/06 11:21:20;;;;;;;22.80;20.30;;;15.00;99.90;;;;;;4944316;28;20054;-72
2022/10/06 11:23:56;;;;;;;23.63;21.30;;;14.90;99.90;;;;;;4971846;28;20058;-72
2022/10/06 11:26:45;;;;;;;22.63;20.60;;;14.60;99.90;;;;;;4950768;28;20349;-72
2022/10/06 11:29:20;;;;;;;22.73;20.48;;;14.80;99.90;;;;;;4955031;28;20043;-72
2022/10/06 11:32:03;;;;;;;22.80;20.08;;;14.80;99.90;;;;;;4942777;28;20047;-72
2022/10/06 11:34:30;;;;;;;22.55;20.20;;;15.10;99.90;;;;;;4965755;28;20405;-72
2022/10/06 11:37:02;;;;;;;24.77;21.63;;;15.40;99.90;;;;;;4963821;28;20416;-72
2022/10/06 11:39:49;;;;;;;23.80;21.50;;;15.50;99.90;;;;;;4969351;28;20055;-72
2022/10/06 11:42:37;;;;;;;22.38;20.58;;;15.30;99.90;;;;;;4942610;28;20039;-72
2022/10/06 11:45:12;;;;;;;24.48;21.92;;;15.20;99.90;;;;;;4947189;28;20311;-72
2022/10/06 11:47:59;;;;;;;23.35;21.55;;;15.30;99.90;;;;;;4940853;28;20062;-72
2022/10/06 11:50:36;;;;;;;28.63;25.55;;;15.50;99.90;;;;;;4927654;28;20138;-72
2022/10/06 11:53:12;;;;;;;30.60;23.95;;;15.50;99.90;;;;;;4942935;28;20406;-72
2022/10/06 11:55:39;;;;;;;23.60;21.38;;;15.60;99.90;;;;;;4939681;28;20141;-72
2022/10/06 11:58:15;;;;;;;23.38;21.27;;;15.70;99.90;;;;;;4956869;28;20073;-72
2022/10/06 12:01:01;;;;;;;24.33;22.20;;;15.80;99.90;;;;;;4959164;28;20404;-72
2022/10/06 12:03:29;;;;;;;24.35;22.23;;;15.90;99.90;;;;;;4946547;28;20094;-72
2022/10/06 12:05:56;;;;;;;23.77;21.45;;;15.80;99.90;;;;;;4964323;28;20243;-72
2022/10/06 12:08:36;;;;;;;26.80;21.50;;;15.70;99.90;;;;;;4966423;28;20054;-72
2022/10/06 12:11:42;;;;;;;22.98;20.67;;;15.80;99.90;;;;;;4949941;28;20440;-72
2022/10/06 12:14:36;;;;;;;25.10;22.00;;;15.90;99.90;;;;;;4965614;28;20046;-72
2022/10/06 12:17:32;;;;;;;24.00;21.77;;;16.10;99.90;;;;;;4963636;28;20053;-73
2022/10/06 12:20:39;;;;;;;23.45;21.30;;;16.20;99.90;;;;;;4956954;28;20046;-73
2022/10/06 12:23:34;;;;;;;23.92;21.73;;;16.30;99.90;;;;;;4944463;28;20045;-73
2022/10/06 12:26:25;;;;;;;23.27;21.10;;;16.20;99.90;;;;;;4948910;28;20544;-73
2022/10/06 12:29:18;;;;;;;23.70;21.23;;;16.40;99.90;;;;;;4962511;28;20043;-73
2022/10/06 12:31:51;;;;;;;22.98;21.05;;;16.50;99.90;;;;;;4950454;28;20051;-73
2022/10/06 12:34:43;;;;;;;22.70;20.92;;;16.70;99.90;;;;;;4967025;28;20046;-72
2022/10/06 12:37:31;;;;;;;21.98;20.38;;;16.50;99.90;;;;;;4946432;28;20190;-73
2022/10/06 12:40:36;;;;;;;24.30;21.90;;;16.40;99.90;;;;;;4966179;28;20043;-73
2022/10/06 12:43:21;;;;;;;23.58;21.67;;;16.30;99.90;;;;;;4963013;28;20038;-73
2022/10/06 12:45:54;;;;;;;24.67;22.15;;;16.40;99.90;;;;;;4978906;28;20073;-72
2022/10/06 12:48:30;;;;;;;25.05;22.65;;;16.40;99.90;;;;;;4970915;28;20038;-73
2022/10/06 12:51:03;;;;;;;23.38;21.35;;;16.50;99.90;;;;;;4965594;28;20046;-73
2022/10/06 12:53:39;;;;;;;24.90;22.58;;;16.40;99.90;;;;;;4969028;28;20141;-73
2022/10/06 12:56:25;;;;;;;24.20;22.17;;;16.40;99.90;;;;;;4939520;28;20038;-72
2022/10/06 12:58:53;;;;;;;24.48;22.38;;;16.50;99.90;;;;;;4965687;28;20042;-73
2022/10/06 13:01:21;;;;;;;24.55;22.33;;;16.50;99.90;;;;;;4945516;28;20070;-73
2022/10/06 13:03:49;;;;;;;22.80;21.00;;;16.70;99.90;;;;;;4939397;28;20053;-73
2022/10/06 13:06:23;;;;;;;24.50;22.10;;;16.70;99.90;;;;;;4937380;28;20053;-73
2022/10/06 13:09:25;;;;;;;22.88;21.05;;;16.50;99.90;;;;;;4961730;28;20049;-73
2022/10/06 13:11:52;;;;;;;24.65;22.02;;;16.50;99.90;;;;;;4920690;29;20091;-74
2022/10/06 13:14:18;;;;;;;23.55;21.33;;;16.50;99.90;;;;;;4959016;28;20045;-73
2022/10/06 13:16:47;;;;;;;24.55;22.23;;;16.80;99.90;;;;;;4945552;28;20070;-73